createdAt,value
2018-06-05T00:01:02.808Z,28
2018-06-05T00:02:07.392Z,28
2018-06-05T00:03:12.544Z,28
2018-06-05T00:04:18.418Z,28
2018-06-05T00:05:23.575Z,28
2018-06-05T00:06:29.419Z,28
2018-06-05T00:07:34.574Z,28
2018-06-05T00:08:39.451Z,28
2018-06-05T00:09:45.011Z,28
2018-06-05T00:10:49.886Z,28
2018-06-05T00:11:54.466Z,28
2018-06-05T00:12:59.983Z,28
2018-06-05T00:14:05.140Z,28
2018-06-05T00:15:10.571Z,28
2018-06-05T00:16:16.404Z,29
2018-06-05T00:17:21.571Z,28
2018-06-05T00:18:27.414Z,28
2018-06-05T00:19:32.846Z,28
2018-06-05T00:20:38.275Z,28
2018-06-05T00:21:43.669Z,28
2018-06-05T00:22:49.100Z,28
2018-06-05T00:23:54.546Z,28
2018-06-05T00:24:59.961Z,27
2018-06-05T00:26:04.827Z,28
2018-06-05T00:27:09.992Z,28
2018-06-05T00:28:15.790Z,28
2018-06-05T00:29:21.221Z,28
2018-06-05T00:30:27.015Z,28
2018-06-05T00:31:32.458Z,28
2018-06-05T00:32:37.316Z,28
2018-06-05T00:33:43.057Z,28
2018-06-05T00:34:48.504Z,28
2018-06-05T00:35:53.657Z,28
2018-06-05T00:36:59.081Z,28
2018-06-05T00:38:04.513Z,28
2018-06-05T00:39:09.669Z,28
2018-06-05T00:40:14.886Z,28
2018-06-05T00:41:20.320Z,28
2018-06-05T00:42:24.900Z,29
2018-06-05T00:43:30.673Z,28
2018-06-05T00:44:36.112Z,28
2018-06-05T00:45:41.386Z,28
2018-06-05T00:46:46.542Z,28
2018-06-05T00:47:51.716Z,28
2018-06-05T00:48:57.504Z,28
2018-06-05T00:50:02.381Z,28
2018-06-05T00:51:07.237Z,28
2018-06-05T00:52:11.817Z,28
2018-06-05T00:53:16.976Z,28
2018-06-05T00:54:22.407Z,28
2018-06-05T00:55:28.249Z,28
2018-06-05T00:56:33.179Z,28
2018-06-05T00:57:38.884Z,28
2018-06-05T00:58:44.318Z,28
2018-06-05T00:59:49.478Z,28
2018-06-05T01:00:55.033Z,28
2018-06-05T01:02:00.193Z,27
2018-06-05T01:03:05.342Z,28
2018-06-05T01:04:10.187Z,28
2018-06-05T01:05:14.792Z,28
2018-06-05T01:06:19.104Z,28
2018-06-05T01:07:23.665Z,28
2018-06-05T01:08:28.824Z,27
2018-06-05T01:09:34.748Z,28
2018-06-05T01:10:39.615Z,28
2018-06-05T01:11:45.049Z,27
2018-06-05T01:12:50.451Z,27
2018-06-05T01:13:55.622Z,27
2018-06-05T01:15:00.776Z,28
2018-06-05T01:16:06.204Z,28
2018-06-05T01:17:11.091Z,28
2018-06-05T01:18:16.299Z,27
2018-06-05T01:19:21.717Z,27
2018-06-05T01:20:26.598Z,27
2018-06-05T01:21:32.011Z,27
2018-06-05T01:22:37.164Z,28
2018-06-05T01:23:42.597Z,28
2018-06-05T01:24:48.430Z,28
2018-06-05T01:25:53.597Z,28
2018-06-05T01:26:59.033Z,28
2018-06-05T01:28:04.737Z,28
2018-06-05T01:29:09.056Z,27
2018-06-05T01:30:14.499Z,28
2018-06-05T01:31:20.210Z,28
2018-06-05T01:32:25.351Z,28
2018-06-05T01:33:31.038Z,28
2018-06-05T01:34:35.631Z,27
2018-06-05T01:35:40.208Z,27
2018-06-05T01:36:45.887Z,28
2018-06-05T01:37:51.040Z,28
2018-06-05T01:38:56.193Z,28
2018-06-05T01:40:01.320Z,28
2018-06-05T01:41:05.627Z,28
2018-06-05T01:42:10.804Z,28
2018-06-05T01:43:16.189Z,28
2018-06-05T01:44:21.069Z,28
2018-06-05T01:45:41.409Z,28
2018-06-05T01:46:46.840Z,28
2018-06-05T01:47:51.997Z,28
2018-06-05T01:48:57.569Z,28
2018-06-05T01:50:03.028Z,28
2018-06-05T01:51:08.467Z,28
2018-06-05T01:52:14.150Z,27
2018-06-05T01:53:18.734Z,27
2018-06-05T01:54:23.889Z,28
2018-06-05T01:55:28.859Z,28
2018-06-05T01:56:34.305Z,28
2018-06-05T01:57:40.187Z,28
2018-06-05T01:58:44.790Z,28
2018-06-05T01:59:50.233Z,27
2018-06-05T02:00:54.795Z,27
2018-06-05T02:01:59.399Z,27
2018-06-05T02:03:04.290Z,27
2018-06-05T02:04:09.690Z,27
2018-06-05T02:05:15.127Z,28
2018-06-05T02:06:20.558Z,27
2018-06-05T02:07:41.089Z,27
2018-06-05T02:08:45.963Z,28
2018-06-05T02:09:51.383Z,27
2018-06-05T02:10:56.264Z,27
2018-06-05T02:12:01.421Z,28
2018-06-05T02:13:06.534Z,27
2018-06-05T02:14:11.700Z,28
2018-06-05T02:15:16.842Z,28
2018-06-05T02:16:22.273Z,28
2018-06-05T02:17:27.713Z,28
2018-06-05T02:18:33.550Z,28
2018-06-05T02:19:38.984Z,28
2018-06-05T02:20:44.424Z,28
2018-06-05T02:21:49.662Z,28
2018-06-05T02:22:54.812Z,28
2018-06-05T02:23:59.969Z,28
2018-06-05T02:25:05.366Z,28
2018-06-05T02:26:10.519Z,28
2018-06-05T02:27:15.679Z,28
2018-06-05T02:28:21.461Z,28
2018-06-05T02:29:26.042Z,28
2018-06-05T02:30:31.560Z,28
2018-06-05T02:31:36.712Z,28
2018-06-05T02:32:41.581Z,28
2018-06-05T02:33:47.027Z,27
2018-06-05T02:34:52.488Z,28
2018-06-05T02:35:57.644Z,28
2018-06-05T02:37:03.042Z,27
2018-06-05T02:38:08.207Z,28
2018-06-05T02:39:13.398Z,28
2018-06-05T02:40:18.803Z,28
2018-06-05T02:41:23.680Z,28
2018-06-05T02:42:28.568Z,28
2018-06-05T02:43:33.456Z,28
2018-06-05T02:44:38.625Z,28
2018-06-05T02:45:44.030Z,28
2018-06-05T02:46:48.932Z,28
2018-06-05T02:47:54.090Z,28
2018-06-05T02:48:59.495Z,28
2018-06-05T02:50:04.661Z,28
2018-06-05T02:51:10.093Z,28
2018-06-05T02:52:15.789Z,28
2018-06-05T02:53:20.939Z,28
2018-06-05T02:54:41.112Z,28
2018-06-05T02:55:45.693Z,28
2018-06-05T02:56:50.274Z,27
2018-06-05T02:57:55.679Z,28
2018-06-05T02:59:00.282Z,28
2018-06-05T03:00:05.182Z,28
2018-06-05T03:01:10.402Z,28
2018-06-05T03:02:15.266Z,28
2018-06-05T03:03:20.423Z,28
2018-06-05T03:04:40.850Z,28
2018-06-05T03:05:45.995Z,28
2018-06-05T03:06:51.677Z,28
2018-06-05T03:07:57.139Z,28
2018-06-05T03:09:02.013Z,28
2018-06-05T03:10:07.134Z,28
2018-06-05T03:11:12.578Z,28
2018-06-05T03:12:17.728Z,28
2018-06-05T03:16:12.375Z,29
2018-06-05T03:17:17.826Z,29
2018-06-05T03:18:22.990Z,29
2018-06-05T03:19:28.392Z,29
2018-06-05T03:20:33.280Z,29
2018-06-05T03:21:38.682Z,29
2018-06-05T03:22:43.548Z,29
2018-06-05T03:23:48.770Z,29
2018-06-05T03:24:54.503Z,29
2018-06-05T03:25:59.967Z,29
2018-06-05T03:27:04.839Z,29
2018-06-05T03:28:10.116Z,30
2018-06-05T03:29:15.567Z,30
2018-06-05T03:30:21.006Z,30
2018-06-05T03:31:26.891Z,30
2018-06-05T03:32:32.044Z,30
2018-06-05T03:33:37.724Z,30
2018-06-05T03:34:42.595Z,30
2018-06-05T03:35:48.031Z,30
2018-06-05T03:36:53.043Z,30
2018-06-05T03:37:58.482Z,30
2018-06-05T03:39:03.632Z,30
2018-06-05T03:40:08.791Z,30
2018-06-05T03:41:14.227Z,30
2018-06-05T03:42:19.093Z,30
2018-06-05T03:43:24.978Z,30
2018-06-05T03:44:29.843Z,30
2018-06-05T03:45:35.314Z,30
2018-06-05T03:46:40.744Z,30
2018-06-05T03:47:45.903Z,30
2018-06-05T03:48:51.516Z,30
2018-06-05T03:49:56.685Z,31
2018-06-05T03:51:14.873Z,31
2018-06-05T03:52:20.103Z,31
2018-06-05T03:53:25.544Z,31
2018-06-05T03:54:31.429Z,31
2018-06-05T03:55:36.863Z,31
2018-06-05T03:56:41.740Z,31
2018-06-05T03:57:47.303Z,31
2018-06-05T03:58:52.736Z,31
2018-06-05T03:59:57.327Z,31
2018-06-05T04:01:02.487Z,31
2018-06-05T04:02:07.381Z,31
2018-06-05T04:03:12.832Z,31
2018-06-05T04:04:18.056Z,31
2018-06-05T04:05:23.320Z,31
2018-06-05T04:06:29.350Z,31
2018-06-05T04:07:34.506Z,31
2018-06-05T04:08:39.932Z,31
2018-06-05T04:09:45.072Z,31
2018-06-05T04:10:50.526Z,31
2018-06-05T04:11:55.705Z,31
2018-06-05T04:13:01.649Z,31
2018-06-05T04:14:05.679Z,31
2018-06-05T04:15:10.263Z,31
2018-06-05T04:16:15.756Z,31
2018-06-05T04:17:20.903Z,31
2018-06-05T04:18:41.107Z,31
2018-06-05T04:19:46.259Z,31
2018-06-05T04:20:51.698Z,31
2018-06-05T04:21:57.639Z,31
2018-06-05T04:23:02.495Z,31
2018-06-05T04:24:07.654Z,31
2018-06-05T04:25:12.817Z,31
2018-06-05T04:26:18.256Z,31
2018-06-05T04:27:23.477Z,31
2018-06-05T04:28:43.906Z,31
2018-06-05T04:29:49.063Z,31
2018-06-05T04:30:54.284Z,31
2018-06-05T04:31:58.874Z,31
2018-06-05T04:33:03.459Z,31
2018-06-05T04:34:09.156Z,31
2018-06-05T04:35:14.299Z,31
2018-06-05T04:36:19.470Z,31
2018-06-05T04:37:24.623Z,31
2018-06-05T04:38:30.055Z,31
2018-06-05T04:39:35.383Z,31
2018-06-05T04:40:40.825Z,31
2018-06-05T04:41:46.267Z,31
2018-06-05T04:42:51.501Z,31
2018-06-05T04:43:56.930Z,31
2018-06-05T04:45:02.361Z,31
2018-06-05T04:46:07.308Z,31
2018-06-05T04:47:12.465Z,31
2018-06-05T04:48:17.635Z,31
2018-06-05T04:49:22.752Z,31
2018-06-05T04:50:27.051Z,31
2018-06-05T04:51:32.662Z,31
2018-06-05T04:52:37.805Z,32
2018-06-05T04:53:42.411Z,32
2018-06-05T04:54:47.829Z,32
2018-06-05T04:55:53.266Z,32
2018-06-05T04:56:58.426Z,31
2018-06-05T04:58:03.829Z,32
2018-06-05T04:59:08.985Z,32
2018-06-05T05:00:14.428Z,31
2018-06-05T05:01:19.936Z,31
2018-06-05T05:02:24.810Z,31
2018-06-05T05:03:30.435Z,32
2018-06-05T05:04:35.596Z,32
2018-06-05T05:05:40.770Z,32
2018-06-05T05:06:46.227Z,32
2018-06-05T05:07:51.374Z,32
2018-06-05T05:08:56.567Z,32
2018-06-05T05:10:02.248Z,32
2018-06-05T05:11:06.850Z,32
2018-06-05T05:12:11.992Z,32
2018-06-05T05:13:16.547Z,32
2018-06-05T05:14:21.417Z,32
2018-06-05T05:15:27.367Z,32
2018-06-05T05:16:32.547Z,32
2018-06-05T05:17:37.410Z,32
2018-06-05T05:18:43.244Z,32
2018-06-05T05:19:48.678Z,32
2018-06-05T05:20:53.820Z,32
2018-06-05T05:21:59.223Z,32
2018-06-05T05:23:04.398Z,32
2018-06-05T05:24:09.557Z,32
2018-06-05T05:25:14.795Z,32
2018-06-05T05:26:19.678Z,32
2018-06-05T05:28:44.608Z,32
2018-06-05T05:29:50.061Z,32
2018-06-05T05:30:56.025Z,32
2018-06-05T05:32:01.531Z,32
2018-06-05T05:33:06.411Z,32
2018-06-05T05:34:11.814Z,32
2018-06-05T05:35:17.247Z,32
2018-06-05T05:36:22.679Z,32
2018-06-05T05:37:28.284Z,32
2018-06-05T05:38:33.714Z,32
2018-06-05T05:39:38.567Z,32
2018-06-05T05:40:44.018Z,32
2018-06-05T05:41:49.454Z,32
2018-06-05T05:42:55.059Z,32
2018-06-05T05:43:59.639Z,32
2018-06-05T05:45:04.528Z,33
2018-06-05T05:46:09.915Z,33
2018-06-05T05:47:15.080Z,32
2018-06-05T05:48:19.965Z,32
2018-06-05T05:49:25.368Z,32
2018-06-05T05:50:29.693Z,33
2018-06-05T05:51:35.488Z,33
2018-06-05T05:52:40.646Z,32
2018-06-05T05:53:45.804Z,33
2018-06-05T05:54:51.536Z,33
2018-06-05T05:55:57.347Z,32
2018-06-05T05:57:01.934Z,32
2018-06-05T05:58:06.779Z,33
2018-06-05T05:59:11.933Z,33
2018-06-05T06:00:17.361Z,32
2018-06-05T06:01:23.392Z,32
2018-06-05T06:02:28.559Z,33
2018-06-05T06:03:34.274Z,33
2018-06-05T06:04:39.178Z,33
2018-06-05T06:05:44.327Z,33
2018-06-05T06:06:50.287Z,33
2018-06-05T06:07:55.739Z,33
2018-06-05T06:09:01.166Z,33
2018-06-05T06:10:06.003Z,33
2018-06-05T06:11:10.885Z,33
2018-06-05T06:12:16.330Z,33
2018-06-05T06:13:22.229Z,33
2018-06-05T06:14:27.092Z,33
2018-06-05T06:15:32.485Z,33
2018-06-05T06:16:37.921Z,33
2018-06-05T06:17:43.074Z,33
2018-06-05T06:18:48.023Z,33
2018-06-05T06:19:53.455Z,33
2018-06-05T06:20:58.601Z,33
2018-06-05T06:22:04.000Z,33
2018-06-05T06:23:09.502Z,33
2018-06-05T06:24:14.656Z,33
2018-06-05T06:25:19.587Z,33
2018-06-05T06:26:24.748Z,33
2018-06-05T06:27:30.533Z,33
2018-06-05T06:28:35.683Z,33
2018-06-05T06:29:40.568Z,33
2018-06-05T06:30:45.961Z,33
2018-06-05T06:31:50.845Z,33
2018-06-05T06:32:55.424Z,33
2018-06-05T06:34:01.169Z,33
2018-06-05T06:35:05.748Z,33
2018-06-05T06:36:10.621Z,33
2018-06-05T06:37:16.309Z,33
2018-06-05T06:38:21.182Z,33
2018-06-05T06:39:27.163Z,33
2018-06-05T06:40:32.018Z,33
2018-06-05T06:41:37.172Z,33
2018-06-05T06:42:42.858Z,33
2018-06-05T06:43:48.022Z,33
2018-06-05T06:44:53.470Z,33
2018-06-05T06:45:58.973Z,33
2018-06-05T06:47:04.421Z,33
2018-06-05T06:48:09.882Z,33
2018-06-05T06:49:15.381Z,33
2018-06-05T06:50:19.684Z,33
2018-06-05T06:52:44.609Z,33
2018-06-05T06:53:49.761Z,33
2018-06-05T06:54:55.069Z,33
2018-06-05T06:56:00.253Z,33
2018-06-05T06:57:05.112Z,33
2018-06-05T06:58:10.242Z,33
2018-06-05T06:59:15.676Z,33
2018-06-05T07:00:20.268Z,33
2018-06-05T07:01:25.947Z,33
2018-06-05T07:02:31.120Z,33
2018-06-05T07:03:36.824Z,34
2018-06-05T07:04:42.147Z,34
2018-06-05T07:05:47.043Z,35
2018-06-05T07:06:52.544Z,35
2018-06-05T07:07:57.726Z,35
2018-06-05T07:09:02.596Z,35
2018-06-05T07:10:07.999Z,35
2018-06-05T07:11:12.876Z,36
2018-06-05T07:12:18.051Z,36
2018-06-05T07:13:23.885Z,36
2018-06-05T07:14:29.040Z,36
2018-06-05T07:15:34.720Z,35
2018-06-05T07:16:40.192Z,35
2018-06-05T07:17:45.352Z,35
2018-06-05T07:18:51.039Z,35
2018-06-05T07:19:56.184Z,35
2018-06-05T07:21:01.629Z,35
2018-06-05T07:22:06.191Z,35
2018-06-05T07:23:11.344Z,36
2018-06-05T07:24:15.706Z,36
2018-06-05T07:25:20.930Z,35
2018-06-05T07:26:26.018Z,35
2018-06-05T07:27:31.699Z,35
2018-06-05T07:28:36.280Z,35
2018-06-05T07:29:41.155Z,35
2018-06-05T07:30:46.585Z,35
2018-06-05T07:31:51.753Z,35
2018-06-05T07:32:56.953Z,35
2018-06-05T07:34:02.797Z,35
2018-06-05T07:35:08.239Z,35
2018-06-05T07:36:13.685Z,35
2018-06-05T07:37:19.367Z,35
2018-06-05T07:38:24.811Z,35
2018-06-05T07:39:30.626Z,34
2018-06-05T07:40:35.815Z,35
2018-06-05T07:41:40.668Z,35
2018-06-05T07:42:45.972Z,35
2018-06-05T07:43:50.851Z,35
2018-06-05T07:44:56.017Z,35
2018-06-05T07:46:00.989Z,35
2018-06-05T07:47:05.864Z,35
2018-06-05T07:48:11.057Z,35
2018-06-05T07:49:17.147Z,35
2018-06-05T07:50:22.034Z,34
2018-06-05T07:51:27.457Z,34
2018-06-05T07:52:32.614Z,35
2018-06-05T07:53:37.497Z,35
2018-06-05T07:54:43.241Z,35
2018-06-05T07:55:48.386Z,34
2018-06-05T07:56:53.544Z,34
2018-06-05T07:57:59.090Z,34
2018-06-05T07:59:03.958Z,34
2018-06-05T08:00:09.394Z,34
2018-06-05T08:01:14.890Z,34
2018-06-05T08:02:20.321Z,34
2018-06-05T08:03:26.159Z,34
2018-06-05T08:04:31.031Z,34
2018-06-05T08:05:36.474Z,34
2018-06-05T08:06:41.694Z,34
2018-06-05T08:07:46.836Z,34
2018-06-05T08:08:52.470Z,34
2018-06-05T08:09:57.681Z,34
2018-06-05T08:11:02.279Z,34
2018-06-05T08:12:06.585Z,34
2018-06-05T08:13:12.267Z,34
2018-06-05T08:14:17.712Z,34
2018-06-05T08:15:22.867Z,34
2018-06-05T08:16:27.909Z,34
2018-06-05T08:17:33.346Z,34
2018-06-05T08:18:38.465Z,33
2018-06-05T08:19:43.073Z,33
2018-06-05T08:20:47.943Z,33
2018-06-05T08:21:53.491Z,33
2018-06-05T08:22:59.238Z,33
2018-06-05T08:24:04.671Z,33
2018-06-05T08:25:09.508Z,33
2018-06-05T08:26:14.948Z,33
2018-06-05T08:27:20.303Z,33
2018-06-05T08:28:25.706Z,33
2018-06-05T08:29:30.585Z,33
2018-06-05T08:30:36.279Z,33
2018-06-05T08:31:41.715Z,33
2018-06-05T08:32:46.602Z,33
2018-06-05T08:33:52.145Z,34
2018-06-05T08:34:57.296Z,34
2018-06-05T08:36:02.165Z,33
2018-06-05T08:37:07.302Z,33
2018-06-05T08:38:12.878Z,34
2018-06-05T08:39:18.333Z,33
2018-06-05T08:40:24.023Z,33
2018-06-05T08:41:28.614Z,33
2018-06-05T08:42:34.016Z,33
2018-06-05T08:43:39.174Z,33
2018-06-05T08:44:43.804Z,33
2018-06-05T08:45:49.316Z,33
2018-06-05T08:46:54.198Z,33
2018-06-05T08:47:59.360Z,33
2018-06-05T08:49:04.332Z,34
2018-06-05T08:50:10.114Z,33
2018-06-05T08:51:15.001Z,33
2018-06-05T08:52:20.020Z,33
2018-06-05T08:53:25.174Z,33
2018-06-05T08:54:30.843Z,33
2018-06-05T08:55:36.010Z,33
2018-06-05T08:56:40.867Z,33
2018-06-05T08:57:46.097Z,33
2018-06-05T08:58:51.538Z,33
2018-06-05T08:59:56.166Z,33
2018-06-05T09:01:01.547Z,33
2018-06-05T09:02:06.135Z,33
2018-06-05T09:03:10.729Z,33
2018-06-05T09:04:16.412Z,33
2018-06-05T09:05:21.547Z,33
2018-06-05T09:06:26.894Z,33
2018-06-05T09:07:33.027Z,33
2018-06-05T09:08:37.904Z,34
2018-06-05T09:09:43.704Z,33
2018-06-05T09:10:48.925Z,32
2018-06-05T09:11:54.487Z,32
2018-06-05T09:12:59.352Z,32
2018-06-05T09:14:04.242Z,32
2018-06-05T09:15:09.392Z,34
2018-06-05T09:16:14.702Z,32
2018-06-05T09:17:19.856Z,32
2018-06-05T09:18:40.297Z,32
2018-06-05T09:19:44.885Z,32
2018-06-05T09:20:50.316Z,32
2018-06-05T09:21:55.997Z,32
2018-06-05T09:23:01.743Z,32
2018-06-05T09:24:06.065Z,32
2018-06-05T09:25:11.495Z,32
2018-06-05T09:26:16.352Z,32
2018-06-05T09:27:21.503Z,32
2018-06-05T09:28:27.305Z,32
2018-06-05T09:29:32.186Z,32
2018-06-05T09:30:38.393Z,32
2018-06-05T09:31:43.550Z,32
2018-06-05T09:32:48.703Z,32
2018-06-05T09:33:54.109Z,32
2018-06-05T09:34:59.542Z,32
2018-06-05T09:36:04.989Z,32
2018-06-05T09:37:10.779Z,32
2018-06-05T09:38:16.127Z,32
2018-06-05T09:39:20.697Z,32
2018-06-05T09:40:25.873Z,32
2018-06-05T09:41:31.201Z,32
2018-06-05T09:42:36.434Z,31
2018-06-05T09:43:42.094Z,31
2018-06-05T09:44:47.525Z,32
2018-06-05T09:45:53.240Z,30
2018-06-05T09:46:58.305Z,30
2018-06-05T09:48:03.821Z,30
2018-06-05T09:49:09.673Z,31
2018-06-05T09:50:15.036Z,30
2018-06-05T09:51:20.201Z,30
2018-06-05T09:52:26.052Z,30
2018-06-05T09:53:31.506Z,30
2018-06-05T09:54:37.072Z,30
2018-06-05T09:55:41.949Z,30
2018-06-05T09:56:46.856Z,30
2018-06-05T09:57:52.516Z,30
2018-06-05T09:58:57.386Z,30
2018-06-05T10:00:01.960Z,30
2018-06-05T10:01:07.166Z,30
2018-06-05T10:02:12.319Z,30
2018-06-05T10:03:17.748Z,30
2018-06-05T10:04:22.886Z,30
2018-06-05T10:05:28.521Z,30
2018-06-05T10:06:33.939Z,30
2018-06-05T10:07:39.085Z,30
2018-06-05T10:08:43.952Z,30
2018-06-05T10:09:49.364Z,30
2018-06-05T10:10:54.521Z,30
2018-06-05T10:11:59.965Z,30
2018-06-05T10:13:04.897Z,30
2018-06-05T10:14:10.337Z,30
2018-06-05T10:15:15.380Z,30
2018-06-05T10:16:21.315Z,30
2018-06-05T10:17:26.487Z,30
2018-06-05T10:18:32.286Z,30
2018-06-05T10:19:37.430Z,30
2018-06-05T10:20:42.965Z,30
2018-06-05T10:21:48.356Z,30
2018-06-05T10:22:53.515Z,30
2018-06-05T10:23:58.956Z,30
2018-06-05T10:25:04.072Z,30
2018-06-05T10:26:08.951Z,30
2018-06-05T10:27:14.111Z,30
2018-06-05T10:28:19.899Z,30
2018-06-05T10:29:25.046Z,30
2018-06-05T10:30:30.048Z,30
2018-06-05T10:31:35.532Z,30
2018-06-05T10:32:40.712Z,30
2018-06-05T10:33:46.405Z,30
2018-06-05T10:34:51.314Z,30
2018-06-05T10:35:56.690Z,29
2018-06-05T10:37:02.386Z,30
2018-06-05T10:38:06.965Z,30
2018-06-05T10:39:12.549Z,30
2018-06-05T10:40:17.934Z,30
2018-06-05T10:41:23.360Z,30
2018-06-05T10:42:29.059Z,30
2018-06-05T10:43:33.927Z,30
2018-06-05T10:44:38.813Z,29
2018-06-05T10:45:44.237Z,30
2018-06-05T10:46:49.726Z,30
2018-06-05T10:47:54.896Z,30
2018-06-05T10:49:00.466Z,30
2018-06-05T10:50:05.361Z,30
2018-06-05T10:51:09.667Z,30
2018-06-05T10:52:15.365Z,30
2018-06-05T10:53:20.805Z,30
2018-06-05T10:54:26.000Z,30
2018-06-05T10:55:30.824Z,30
2018-06-05T10:56:36.264Z,30
2018-06-05T10:57:41.876Z,30
2018-06-05T10:58:47.040Z,30
2018-06-05T10:59:52.225Z,30
2018-06-05T11:00:57.908Z,30
2018-06-05T11:02:03.355Z,29
2018-06-05T11:03:08.815Z,29
2018-06-05T11:04:13.934Z,29
2018-06-05T11:05:19.414Z,29
2018-06-05T11:06:24.610Z,29
2018-06-05T11:07:44.947Z,30
2018-06-05T11:08:50.399Z,30
2018-06-05T11:09:56.181Z,30
2018-06-05T11:11:01.633Z,30
2018-06-05T11:12:05.971Z,30
2018-06-05T11:13:11.259Z,30
2018-06-05T11:14:16.147Z,30
2018-06-05T11:15:21.179Z,30
2018-06-05T11:16:27.011Z,30
2018-06-05T11:17:31.900Z,30
2018-06-05T11:18:37.315Z,30
2018-06-05T11:19:42.495Z,30
2018-06-05T11:20:47.926Z,30
2018-06-05T11:21:53.440Z,30
2018-06-05T11:22:58.892Z,30
2018-06-05T11:24:03.761Z,30
2018-06-05T11:25:09.455Z,30
2018-06-05T11:26:14.654Z,30
2018-06-05T11:27:20.101Z,30
2018-06-05T11:28:26.243Z,29
2018-06-05T11:29:31.863Z,29
2018-06-05T11:30:37.420Z,29
2018-06-05T11:31:42.897Z,29
2018-06-05T11:32:47.755Z,29
2018-06-05T11:33:53.149Z,30
2018-06-05T11:34:57.731Z,30
2018-06-05T11:36:02.896Z,30
2018-06-05T11:37:08.930Z,30
2018-06-05T11:38:14.358Z,30
2018-06-05T11:39:19.457Z,30
2018-06-05T11:40:24.781Z,30
2018-06-05T11:41:30.217Z,30
2018-06-05T11:42:35.628Z,30
2018-06-05T11:43:40.503Z,30
2018-06-05T11:44:46.209Z,30
2018-06-05T11:45:51.782Z,30
2018-06-05T11:46:56.946Z,30
2018-06-05T11:48:02.406Z,30
2018-06-05T11:49:07.634Z,30
2018-06-05T11:50:12.993Z,30
2018-06-05T11:51:18.421Z,30
2018-06-05T11:52:23.825Z,30
2018-06-05T11:53:29.258Z,30
2018-06-05T11:54:34.667Z,30
2018-06-05T11:55:40.100Z,30
2018-06-05T11:56:45.277Z,30
2018-06-05T11:57:50.543Z,30
2018-06-05T11:58:55.417Z,30
2018-06-05T11:59:59.999Z,30
2018-06-05T12:01:05.698Z,30
2018-06-05T12:02:11.014Z,30
2018-06-05T12:03:16.447Z,30
2018-06-05T12:04:22.332Z,30
2018-06-05T12:05:27.487Z,30
2018-06-05T12:06:32.608Z,30
2018-06-05T12:07:37.490Z,30
2018-06-05T12:08:42.658Z,30
2018-06-05T12:09:48.345Z,30
2018-06-05T12:10:53.517Z,30
2018-06-05T12:11:58.966Z,30
2018-06-05T12:13:04.367Z,30
2018-06-05T12:14:09.570Z,30
2018-06-05T12:15:14.459Z,30
2018-06-05T12:16:19.592Z,30
2018-06-05T12:17:24.977Z,30
2018-06-05T12:18:30.935Z,30
2018-06-05T12:19:36.080Z,30
2018-06-05T12:20:41.438Z,30
2018-06-05T12:21:47.126Z,30
2018-06-05T12:22:52.298Z,30
2018-06-05T12:23:57.453Z,30
2018-06-05T12:25:02.492Z,30
2018-06-05T12:26:07.286Z,30
2018-06-05T12:27:11.893Z,30
2018-06-05T12:28:17.296Z,30
2018-06-05T12:29:22.165Z,30
2018-06-05T12:30:27.997Z,30
2018-06-05T12:31:33.636Z,30
2018-06-05T12:32:38.803Z,30
2018-06-05T12:33:44.620Z,30
2018-06-05T12:34:49.475Z,30
2018-06-05T12:35:54.915Z,30
2018-06-05T12:37:00.331Z,30
2018-06-05T12:38:05.500Z,30
2018-06-05T12:39:10.685Z,30
2018-06-05T12:40:16.013Z,30
2018-06-05T12:41:20.591Z,30
2018-06-05T12:42:26.403Z,30
2018-06-05T12:43:32.039Z,30
2018-06-05T12:44:36.942Z,30
2018-06-05T12:45:42.080Z,30
2018-06-05T12:46:47.513Z,30
2018-06-05T12:47:52.671Z,30
2018-06-05T12:48:58.090Z,30
2018-06-05T12:50:02.981Z,30
2018-06-05T12:51:07.590Z,30
2018-06-05T12:52:13.278Z,30
2018-06-05T12:53:18.712Z,30
2018-06-05T12:54:23.592Z,30
2018-06-05T12:55:28.468Z,30
2018-06-05T12:56:33.580Z,31
2018-06-05T12:57:38.988Z,30
2018-06-05T12:58:44.152Z,31
2018-06-05T12:59:49.455Z,31
2018-06-05T13:00:54.326Z,31
2018-06-05T13:01:59.757Z,31
2018-06-05T13:03:04.616Z,31
2018-06-05T13:04:10.078Z,31
2018-06-05T13:05:14.952Z,31
2018-06-05T13:06:20.663Z,30
2018-06-05T13:07:26.506Z,30
2018-06-05T13:08:31.387Z,30
2018-06-05T13:09:36.508Z,31
2018-06-05T13:10:41.689Z,31
2018-06-05T13:11:47.196Z,30
2018-06-05T13:12:53.008Z,30
2018-06-05T13:13:58.204Z,30
2018-06-05T13:15:03.644Z,30
2018-06-05T13:16:09.079Z,30
2018-06-05T13:17:14.235Z,30
2018-06-05T13:18:19.128Z,30
2018-06-05T13:19:24.543Z,30
2018-06-05T13:20:29.150Z,30
2018-06-05T13:21:34.933Z,30
2018-06-05T13:22:40.459Z,29
2018-06-05T13:23:46.113Z,29
2018-06-05T13:24:51.849Z,29
2018-06-05T13:25:57.296Z,29
2018-06-05T13:27:01.887Z,29
2018-06-05T13:28:07.339Z,29
2018-06-05T13:29:11.961Z,29
2018-06-05T13:30:16.847Z,29
2018-06-05T13:31:22.531Z,29
2018-06-05T13:32:27.964Z,29
2018-06-05T13:33:33.876Z,29
2018-06-05T13:34:39.330Z,29
2018-06-05T13:35:44.238Z,29
2018-06-05T13:36:49.975Z,29
2018-06-05T13:37:55.140Z,29
2018-06-05T13:39:00.787Z,29
2018-06-05T13:40:05.353Z,29
2018-06-05T13:41:10.226Z,29
2018-06-05T13:42:15.400Z,29
2018-06-05T13:43:20.798Z,29
2018-06-05T13:44:25.948Z,29
2018-06-05T13:45:32.254Z,29
2018-06-05T13:46:37.422Z,29
2018-06-05T13:47:42.604Z,29
2018-06-05T13:48:48.011Z,28
2018-06-05T13:49:53.177Z,28
2018-06-05T13:50:58.340Z,28
2018-06-05T13:52:03.558Z,28
2018-06-05T13:53:09.015Z,28
2018-06-05T13:54:14.348Z,28
2018-06-05T13:55:20.155Z,28
2018-06-05T13:56:25.584Z,28
2018-06-05T13:57:31.090Z,28
2018-06-05T13:58:36.524Z,28
2018-06-05T13:59:41.101Z,28
2018-06-05T14:00:46.787Z,28
2018-06-05T14:01:52.230Z,28
2018-06-05T14:02:57.666Z,28
2018-06-05T14:04:03.060Z,28
2018-06-05T14:05:08.232Z,28
2018-06-05T14:06:13.656Z,28
2018-06-05T14:07:19.088Z,28
2018-06-05T14:08:24.291Z,28
2018-06-05T14:09:30.225Z,28
2018-06-05T14:10:35.662Z,28
2018-06-05T14:11:40.828Z,28
2018-06-05T14:12:46.237Z,28
2018-06-05T14:13:51.394Z,28
2018-06-05T14:14:56.539Z,28
2018-06-05T14:16:01.715Z,28
2018-06-05T14:17:06.593Z,28
2018-06-05T14:18:12.026Z,28
2018-06-05T14:19:17.221Z,28
2018-06-05T14:20:22.387Z,28
2018-06-05T14:21:28.269Z,28
2018-06-05T14:22:33.702Z,28
2018-06-05T14:23:39.149Z,28
2018-06-05T14:24:44.832Z,28
2018-06-05T14:25:50.267Z,28
2018-06-05T14:26:55.904Z,28
2018-06-05T14:28:01.397Z,28
2018-06-05T14:29:05.147Z,28
2018-06-05T14:30:10.302Z,28
2018-06-05T14:31:15.454Z,28
2018-06-05T14:32:20.331Z,28
2018-06-05T14:33:40.499Z,28
2018-06-05T14:34:44.517Z,28
2018-06-05T14:35:49.374Z,28
2018-06-05T14:36:54.511Z,28
2018-06-05T14:37:59.390Z,28
2018-06-05T14:39:04.561Z,28
2018-06-05T14:40:10.253Z,28
2018-06-05T14:41:15.685Z,28
2018-06-05T14:42:20.566Z,28
2018-06-05T14:43:26.074Z,28
2018-06-05T14:44:31.223Z,28
2018-06-05T14:45:36.621Z,28
2018-06-05T14:46:41.777Z,28
2018-06-05T14:47:46.635Z,28
2018-06-05T14:48:51.897Z,28
2018-06-05T14:49:57.375Z,28
2018-06-05T14:51:01.960Z,28
2018-06-05T14:52:06.789Z,28
2018-06-05T14:53:12.395Z,28
2018-06-05T14:54:17.902Z,28
2018-06-05T14:55:23.021Z,28
2018-06-05T14:56:28.192Z,28
2018-06-05T14:57:34.005Z,28
2018-06-05T14:58:39.169Z,28
2018-06-05T14:59:44.037Z,28
2018-06-05T15:00:49.839Z,28
2018-06-05T15:01:55.015Z,28
2018-06-05T15:02:59.929Z,28
2018-06-05T15:04:04.596Z,28
2018-06-05T15:05:09.505Z,28
2018-06-05T15:06:14.376Z,29
2018-06-05T15:07:19.360Z,28
2018-06-05T15:08:24.506Z,28
2018-06-05T15:09:29.629Z,28
2018-06-05T15:10:35.062Z,28
2018-06-05T15:11:40.231Z,28
2018-06-05T15:12:46.020Z,28
2018-06-05T15:13:51.461Z,28
2018-06-05T15:14:56.917Z,28
2018-06-05T15:16:02.139Z,28
2018-06-05T15:17:07.005Z,28
2018-06-05T15:18:12.163Z,28
2018-06-05T15:19:17.955Z,28
2018-06-05T15:20:23.589Z,28
2018-06-05T15:21:29.102Z,28
2018-06-05T15:22:34.540Z,28
2018-06-05T15:23:39.972Z,28
2018-06-05T15:24:45.774Z,28
2018-06-05T15:25:50.654Z,28
2018-06-05T15:26:56.081Z,28
2018-06-05T15:28:01.873Z,28
2018-06-05T15:29:05.633Z,28
2018-06-05T15:30:10.496Z,28
2018-06-05T15:31:16.281Z,28
2018-06-05T15:32:21.434Z,28
2018-06-05T15:33:26.829Z,28
2018-06-05T15:34:32.272Z,28
2018-06-05T15:35:37.419Z,28
2018-06-05T15:36:43.202Z,28
2018-06-05T15:37:48.129Z,28
2018-06-05T15:38:53.544Z,28